Terminal Aerodrome Forecast
Issued by NWS Des Moines, IA

Home | Current Version | Previous Version | Text Only | Print | Product List | Glossary On
Versions: 1 2 3 4 5 6 7 8 9 10 11 12 13 14 15 16 17 18 19 20 21 22 23 24 25 26 27 28 29 30 31 32 33 34 35 36
000
FTUS43 KDMX 221846 AAB
TAFDSM
TAF AMD
KDSM 221846Z 2219/2318 VRB05KT P6SM VCTS BKN050CB BKN120
      TEMPO 2219/2223 2SM -TSRA BKN030CB
     FM230000 16005KT P6SM SCT035 BKN070
     FM230900 09004KT 4SM BR VCTS SCT025CB OVC040
     FM231100 13007KT 2SM -TSRA BR BKN025CB
     FM231300 14009KT P6SM SCT030 BKN080=

USA.gov is the U.S. government's official web portal to all federal, state and local government web resources and services.